Time;durP1;ratioP1;P1;durP2;ratioP2;P2;SDS_P1;SDS_P2;PMS_P1;PMS_P2;Temp;Humidity;BMP_temperature;BMP_pressure;BME280_temperature;BME280_humidity;BME280_pressure;Samples;Min_cycle;Max_cycle;Signal;HPM_P1;HPM_P2
2022/01/13 00:01:50;;;;;;;0.10;0.10;;;;;;;6.77;71.06;104242.47;5048630;28;20033;-88
2022/01/13 00:04:17;;;;;;;0.10;0.10;;;;;;;6.83;70.77;104241.88;5052067;28;20040;-90
2022/01/13 00:06:45;;;;;;;0.10;0.10;;;;;;;6.77;71.04;104231.91;5044244;28;20464;-89
2022/01/13 00:09:12;;;;;;;0.13;0.13;;;;;;;6.78;71.31;104233.75;5048128;28;20033;-86
2022/01/13 00:11:38;;;;;;;0.10;0.10;;;;;;;6.88;70.66;104235.09;5047496;28;20029;-86
2022/01/13 00:22:49;;;;;;;0.17;0.17;;;;;;;6.80;71.11;104232.09;4198770;27;25326626;-90
2022/01/13 00:25:17;;;;;;;0.10;0.10;;;;;;;6.77;71.07;104231.91;5087712;28;20051;-90
2022/01/13 00:27:49;;;;;;;0.10;0.10;;;;;;;6.87;70.60;104235.03;5086832;28;20082;-87
2022/01/13 00:30:18;;;;;;;0.15;0.15;;;;;;;6.72;71.43;104230.78;5069660;28;20039;-90
2022/01/13 00:32:45;;;;;;;0.10;0.10;;;;;;;6.73;71.45;104237.88;5069239;28;20083;-78
2022/01/13 00:35:13;;;;;;;0.88;0.85;;;;;;;6.75;70.92;104228.31;5066590;28;20025;-89
2022/01/13 00:37:40;;;;;;;0.10;0.10;;;;;;;6.75;71.33;104223.06;5051096;28;20045;-90
2022/01/13 00:40:08;;;;;;;0.10;0.10;;;;;;;6.81;71.13;104227.72;5066567;28;20033;-90
2022/01/13 00:42:34;;;;;;;0.20;0.20;;;;;;;6.81;71.03;104232.97;5067971;28;20498;-91
2022/01/13 00:45:03;;;;;;;0.25;0.25;;;;;;;6.73;71.30;104229.97;5065771;28;20032;-79
2022/01/13 00:47:30;;;;;;;0.10;0.10;;;;;;;6.82;71.25;104233.88;5048641;28;20033;-83
2022/01/13 00:49:57;;;;;;;0.10;0.10;;;;;;;6.85;71.09;104239.31;5068223;28;20035;-90
2022/01/13 00:52:25;;;;;;;1.77;0.80;;;;;;;6.85;71.34;104234.94;5069099;28;20036;-91
2022/01/13 00:54:56;;;;;;;0.10;0.10;;;;;;;6.93;71.22;104227.44;5066665;28;20033;-88
2022/01/13 00:57:23;;;;;;;0.20;0.20;;;;;;;6.88;71.20;104239.47;5067243;28;20037;-88
2022/01/13 00:59:50;;;;;;;2.83;1.45;;;;;;;6.92;71.26;104233.53;5068141;28;20040;-88
2022/01/13 01:02:17;;;;;;;0.38;0.38;;;;;;;6.97;71.01;104238.19;5065945;28;20044;-90
2022/01/13 01:04:43;;;;;;;0.10;0.10;;;;;;;6.96;71.45;104232.84;5068634;28;20112;-89
2022/01/13 01:07:09;;;;;;;2.92;0.98;;;;;;;6.95;71.21;104241.56;5064989;28;20033;-89
2022/01/13 01:09:40;;;;;;;0.05;0.05;;;;;;;6.98;70.93;104247.03;5076383;28;20036;-89
2022/01/13 01:12:09;;;;;;;0.28;0.28;;;;;;;7.01;70.93;104249.78;5055948;28;20029;-90
2022/01/13 01:14:40;;;;;;;2.15;1.95;;;;;;;6.99;71.14;104254.09;5074220;28;20020;-88
2022/01/13 01:17:16;;;;;;;0.10;0.10;;;;;;;7.03;71.25;104255.13;5075044;28;20028;-87
2022/01/13 01:19:51;;;;;;;0.70;0.70;;;;;;;7.01;71.42;104257.69;5069277;28;20060;-83
2022/01/13 01:27:53;;;;;;;1.10;1.05;;;;;;;6.94;71.44;104245.03;3509828;27;46217755;-87
2022/01/13 01:30:30;;;;;;;1.55;1.45;;;;;;;7.13;70.87;104245.13;5124606;27;20035;-89
2022/01/13 01:32:57;;;;;;;0.45;0.45;;;;;;;7.14;70.75;104243.41;5126666;27;20126;-85
2022/01/13 01:35:26;;;;;;;0.10;0.10;;;;;;;7.09;70.90;104245.81;5125200;27;20034;-89
2022/01/13 01:37:53;;;;;;;0.20;0.20;;;;;;;7.08;71.08;104243.09;5127515;27;20046;-86
2022/01/13 01:40:20;;;;;;;0.60;0.47;;;;;;;7.13;71.10;104250.41;5127749;28;21683;-84
2022/01/13 01:42:47;;;;;;;0.10;0.10;;;;;;;7.12;71.11;104248.59;5126099;28;20019;-81
2022/01/13 01:45:15;;;;;;;0.20;0.20;;;;;;;7.08;71.08;104244.00;5127020;28;20024;-89
2022/01/13 01:47:43;;;;;;;17.90;1.17;;;;;;;7.10;71.10;104252.91;5127213;28;20023;-86
2022/01/13 01:50:18;;;;;;;0.38;0.35;;;;;;;7.09;71.09;104253.72;5123783;27;20435;-90
2022/01/13 01:52:47;;;;;;;0.38;0.38;;;;;;;7.01;71.37;104257.69;5123696;27;20031;-89
2022/01/13 01:55:14;;;;;;;0.75;0.75;;;;;;;7.08;71.04;104251.91;5124118;28;20102;-91
2022/01/13 01:57:42;;;;;;;0.20;0.20;;;;;;;7.10;71.07;104246.72;5122487;28;20044;-88
2022/01/13 02:00:13;;;;;;;0.10;0.10;;;;;;;7.09;71.29;104240.53;5122341;27;20036;-89
2022/01/13 02:02:42;;;;;;;0.50;0.50;;;;;;;7.11;70.95;104236.22;5118432;28;20027;-90
2022/01/13 02:05:09;;;;;;;0.20;0.20;;;;;;;7.14;71.24;104243.41;5128760;28;20111;-90
2022/01/13 02:07:36;;;;;;;1.35;0.80;;;;;;;7.17;71.03;104253.22;5125431;27;20038;-89
2022/01/13 02:10:04;;;;;;;0.10;0.10;;;;;;;7.19;71.17;104246.25;5128138;27;20027;-85
2022/01/13 02:12:35;;;;;;;0.10;0.10;;;;;;;7.22;70.75;104247.31;5125334;28;20024;-88
2022/01/13 02:15:27;;;;;;;0.10;0.10;;;;;;;7.21;70.93;104234.06;5124920;28;20037;-90
2022/01/13 02:17:53;;;;;;;0.25;0.25;;;;;;;7.25;70.89;104236.00;5128439;28;20046;-85
2022/01/13 02:20:20;;;;;;;0.10;0.10;;;;;;;7.22;71.09;104231.47;5125446;27;20427;-90
2022/01/13 02:22:46;;;;;;;1.20;1.10;;;;;;;7.20;71.27;104230.53;5123788;28;20056;-85
2022/01/13 02:25:15;;;;;;;1.40;1.40;;;;;;;7.19;71.34;104234.00;5129935;27;20095;-89
2022/01/13 02:27:42;;;;;;;0.70;0.70;;;;;;;7.15;71.41;104228.47;5127434;28;20085;-91
2022/01/13 02:30:09;;;;;;;0.77;0.77;;;;;;;7.21;71.07;104226.16;5124026;28;20020;-89
2022/01/13 02:32:36;;;;;;;0.10;0.10;;;;;;;7.20;71.27;104226.97;5113349;28;20069;-91
2022/01/13 02:35:02;;;;;;;2.92;1.75;;;;;;;7.22;71.28;104220.03;5131065;28;20035;-92
2022/01/13 02:37:28;;;;;;;0.10;0.10;;;;;;;7.10;71.47;104226.53;5122499;28;20042;-92
2022/01/13 02:39:55;;;;;;;0.10;0.10;;;;;;;7.19;71.28;104223.44;5107764;28;20031;-87
2022/01/13 02:42:21;;;;;;;0.10;0.10;;;;;;;7.23;71.09;104216.59;5107845;28;20024;-91
2022/01/13 02:44:59;;;;;;;0.10;0.10;;;;;;;7.18;71.62;104208.44;5113709;28;20538;-85
2022/01/13 02:50:33;;;;;;;2.10;1.80;;;;;;;7.25;71.37;104201.72;5060592;28;20483;-88
2022/01/13 02:52:59;;;;;;;0.93;0.85;;;;;;;7.32;71.21;104209.09;5048514;28;20045;-92
2022/01/13 02:55:28;;;;;;;0.38;0.38;;;;;;;7.27;71.37;104203.59;5044641;28;20457;-92
2022/01/13 02:57:54;;;;;;;2.38;2.25;;;;;;;7.32;71.12;104201.19;5046956;28;20161;-91
2022/01/13 03:00:21;;;;;;;0.10;0.10;;;;;;;7.19;71.39;104199.69;5049519;28;20330;-91
2022/01/13 03:02:48;;;;;;;1.00;1.00;;;;;;;7.26;71.27;104195.63;5048273;28;20037;-92
2022/01/13 03:05:15;;;;;;;0.10;0.10;;;;;;;7.21;71.29;104202.41;5038796;28;20064;-91
2022/01/13 03:07:42;;;;;;;0.77;0.77;;;;;;;7.21;71.33;104200.66;5047443;28;20064;-90
2022/01/13 03:10:10;;;;;;;0.95;0.95;;;;;;;7.19;71.49;104196.16;5048254;28;20534;-92
2022/01/13 03:12:41;;;;;;;0.55;0.55;;;;;;;7.20;71.31;104196.25;5048510;28;20041;-92
2022/01/13 03:15:07;;;;;;;0.10;0.10;;;;;;;7.25;71.32;104193.81;5048224;28;20037;-92
2022/01/13 03:17:34;;;;;;;0.63;0.63;;;;;;;7.25;71.13;104199.06;5053695;28;20554;-91
2022/01/13 03:20:00;;;;;;;0.10;0.10;;;;;;;7.25;71.23;104199.06;5056761;28;20056;-88
2022/01/13 03:22:26;;;;;;;0.15;0.15;;;;;;;7.17;71.42;104188.16;5050172;28;20064;-91
2022/01/13 03:24:53;;;;;;;0.13;0.13;;;;;;;7.25;71.24;104183.25;5049234;28;20040;-88
2022/01/13 03:27:22;;;;;;;0.10;0.10;;;;;;;7.21;71.62;104183.94;5047836;28;20032;-91
2022/01/13 03:29:49;;;;;;;4.18;3.83;;;;;;;7.26;71.46;104177.16;5050157;28;20098;-92
2022/01/13 03:32:17;;;;;;;2.05;1.95;;;;;;;7.25;70.99;104172.69;5046866;28;20033;-89
2022/01/13 03:34:45;;;;;;;0.13;0.13;;;;;;;7.22;71.08;104177.84;5048076;28;20026;-91
2022/01/13 03:37:11;;;;;;;0.20;0.20;;;;;;;7.28;70.91;104173.75;5048508;28;20033;-91
2022/01/13 03:39:37;;;;;;;0.30;0.30;;;;;;;7.30;71.28;104171.19;5042978;28;20047;-89
2022/01/13 03:42:04;;;;;;;0.20;0.20;;;;;;;7.31;71.30;104174.75;5046794;28;20041;-86
2022/01/13 03:44:31;;;;;;;0.98;0.98;;;;;;;7.29;71.12;104172.03;5045310;28;20029;-90
2022/01/13 03:47:01;;;;;;;0.10;0.10;;;;;;;7.30;71.49;104168.53;5047775;28;20025;-90
2022/01/13 03:49:29;;;;;;;0.10;0.10;;;;;;;7.27;71.32;104176.31;5043963;28;20116;-89
2022/01/13 03:58:02;;;;;;;0.30;0.30;;;;;;;7.32;71.38;104166.88;5061440;28;20495;-84
2022/01/13 04:01:08;;;;;;;2.92;1.85;;;;;;;7.35;71.00;104172.31;5025411;28;20108;-85
2022/01/13 04:03:35;;;;;;;1.00;1.00;;;;;;;7.33;71.24;104178.34;5022825;28;20061;-89
2022/01/13 04:08:49;;;;;;;0.10;0.10;;;;;;;7.27;71.44;104177.22;5078524;27;20432;-91
2022/01/13 04:11:28;;;;;;;0.25;0.25;;;;;;;7.35;71.25;104176.69;5058318;28;20465;-88
2022/01/13 04:14:01;;;;;;;2.17;1.48;;;;;;;7.36;71.09;104186.41;5064394;28;20398;-91
2022/01/13 04:16:31;;;;;;;0.10;0.10;;;;;;;7.38;71.27;104180.38;5062671;28;20095;-90
2022/01/13 04:19:04;;;;;;;0.20;0.20;;;;;;;7.35;71.42;104185.50;5070588;28;20030;-90
2022/01/13 04:21:33;;;;;;;0.10;0.10;;;;;;;7.37;70.98;104182.94;5063544;28;20039;-88
2022/01/13 04:24:00;;;;;;;0.20;0.20;;;;;;;7.38;71.12;104171.56;5064603;28;20040;-87
2022/01/13 04:26:28;;;;;;;0.10;0.10;;;;;;;7.38;71.32;104169.81;5060000;28;20021;-90
2022/01/13 04:32:05;;;;;;;0.52;0.52;;;;;;;7.38;71.19;104168.94;5069224;28;20421;-89
2022/01/13 04:34:32;;;;;;;0.00;0.00;;;;;;;7.39;71.46;104174.28;5069481;28;20167;-89
2022/01/13 04:36:59;;;;;;;1.10;1.10;;;;;;;7.43;71.00;104177.97;5069636;28;20044;-90
2022/01/13 04:39:27;;;;;;;0.20;0.20;;;;;;;7.45;71.20;104190.38;5070087;28;20500;-90
2022/01/13 04:41:54;;;;;;;0.20;0.20;;;;;;;7.47;71.27;104192.19;5066485;28;20037;-89
2022/01/13 04:44:23;;;;;;;0.10;0.10;;;;;;;7.51;70.98;104191.50;5069449;28;20461;-89
2022/01/13 04:46:55;;;;;;;0.10;0.10;;;;;;;7.52;70.81;104188.94;5069146;28;20138;-90
2022/01/13 04:49:23;;;;;;;0.40;0.40;;;;;;;7.52;70.97;104190.66;5068059;28;20045;-89
2022/01/13 04:51:50;;;;;;;0.30;0.30;;;;;;;7.51;70.68;104186.22;5068447;28;20036;-89
2022/01/13 04:54:17;;;;;;;0.32;0.32;;;;;;;7.52;70.71;104183.66;5069304;28;20479;-90
2022/01/13 04:57:04;;;;;;;0.30;0.30;;;;;;;7.45;70.76;104171.91;5069167;28;20479;-84
2022/01/13 04:59:30;;;;;;;0.13;0.13;;;;;;;7.50;71.00;104179.13;5066928;28;20039;-90
2022/01/13 05:01:56;;;;;;;1.90;1.30;;;;;;;7.52;71.11;104177.47;5069535;28;20484;-91
2022/01/13 05:04:23;;;;;;;0.15;0.15;;;;;;;7.47;70.84;104177.25;5069425;28;20060;-89
2022/01/13 05:06:53;;;;;;;0.20;0.20;;;;;;;7.48;71.00;104167.59;5068589;28;20029;-90
2022/01/13 05:09:19;;;;;;;0.30;0.30;;;;;;;7.43;70.82;104168.28;5066641;28;20033;-90
2022/01/13 05:11:45;;;;;;;0.10;0.10;;;;;;;7.43;71.25;104172.69;5065844;28;20095;-90
2022/01/13 05:14:11;;;;;;;0.30;0.30;;;;;;;7.36;71.03;104171.47;5069250;28;20476;-89
2022/01/13 05:16:54;;;;;;;0.28;0.28;;;;;;;7.29;71.39;104174.69;5069945;28;20491;-89
2022/01/13 05:19:31;;;;;;;0.10;0.10;;;;;;;7.28;71.57;104172.88;5059823;28;20033;-88
2022/01/13 05:24:37;;;;;;;0.30;0.30;;;;;;;7.23;71.77;104185.81;5004711;27;2348866;-90
2022/01/13 05:27:06;;;;;;;0.20;0.20;;;;;;;7.32;71.13;104189.75;5062775;28;20055;-85
2022/01/13 05:29:32;;;;;;;1.15;0.90;;;;;;;7.23;71.40;104180.53;5051935;28;20087;-86
2022/01/13 05:31:58;;;;;;;0.15;0.15;;;;;;;7.24;70.97;104182.34;5047641;28;20079;-77
2022/01/13 05:34:30;;;;;;;0.75;0.75;;;;;;;7.25;71.34;104188.53;5049989;28;20033;-91
2022/01/13 05:36:56;;;;;;;0.10;0.10;;;;;;;7.19;71.48;104182.97;5045526;28;20029;-77
2022/01/13 05:39:22;;;;;;;2.15;1.92;;;;;;;7.17;71.64;104176.72;5044440;28;20036;-80
2022/01/13 05:41:48;;;;;;;1.13;1.10;;;;;;;7.14;71.79;104180.13;5037038;28;20524;-90
2022/01/13 05:44:15;;;;;;;0.10;0.10;;;;;;;7.20;71.42;104174.22;5045803;28;20071;-88
2022/01/13 05:46:41;;;;;;;0.95;0.95;;;;;;;7.12;71.22;104172.13;5025280;28;20039;-86
2022/01/13 05:49:07;;;;;;;16.15;2.17;;;;;;;7.24;71.16;104161.25;5047548;28;20472;-82
2022/01/13 05:51:33;;;;;;;0.10;0.10;;;;;;;7.18;71.43;104167.97;5047117;28;20036;-79
2022/01/13 05:54:00;;;;;;;0.10;0.10;;;;;;;7.10;71.40;104163.25;5048520;28;20025;-78
2022/01/13 05:56:27;;;;;;;0.10;0.10;;;;;;;7.12;71.16;104169.47;5042265;28;20035;-84
2022/01/13 05:58:54;;;;;;;0.20;0.20;;;;;;;7.12;71.39;104171.22;5045949;28;20060;-88
2022/01/13 06:01:20;;;;;;;0.17;0.17;;;;;;;7.22;71.47;104168.19;5043682;28;20428;-88
2022/01/13 06:03:46;;;;;;;2.15;1.60;;;;;;;7.16;71.22;104177.56;5044865;28;20476;-92
2022/01/13 06:06:13;;;;;;;1.27;1.17;;;;;;;7.16;71.37;104167.00;5045520;28;20514;-92
2022/01/13 06:08:42;;;;;;;0.10;0.10;;;;;;;7.23;70.98;104171.75;5049860;28;20041;-88
2022/01/13 06:11:08;;;;;;;0.25;0.25;;;;;;;7.09;71.48;104166.72;5050312;28;20038;-90
2022/01/13 06:13:34;;;;;;;0.10;0.10;;;;;;;7.09;71.32;104171.97;5050169;28;20037;-89
2022/01/13 06:16:07;;;;;;;1.60;1.52;;;;;;;7.16;71.91;104178.44;5049742;28;20179;-91
2022/01/13 06:18:34;;;;;;;0.10;0.10;;;;;;;7.09;71.31;104171.97;5020026;28;20472;-90
2022/01/13 06:21:06;;;;;;;1.02;1.02;;;;;;;7.12;71.35;104172.13;5049309;28;20033;-90
2022/01/13 06:23:32;;;;;;;0.10;0.10;;;;;;;7.11;71.56;104174.69;5049495;28;20243;-91
2022/01/13 06:25:58;;;;;;;0.10;0.10;;;;;;;7.05;71.81;104164.75;5051049;28;20040;-90
2022/01/13 06:28:24;;;;;;;0.20;0.20;;;;;;;7.10;71.30;104172.88;5051880;28;20029;-89
2022/01/13 06:30:51;;;;;;;3.63;1.48;;;;;;;7.16;71.37;104167.00;5048946;28;20029;-90
2022/01/13 06:33:17;;;;;;;28.15;1.67;;;;;;;7.12;71.55;104176.50;5050102;28;20029;-91
2022/01/13 06:35:46;;;;;;;0.10;0.10;;;;;;;7.03;71.31;104171.69;5019645;28;20037;-91
2022/01/13 06:38:13;;;;;;;0.15;0.15;;;;;;;7.12;71.75;104173.88;5035918;28;20087;-89
2022/01/13 06:40:39;;;;;;;1.27;1.17;;;;;;;7.18;71.23;104165.31;5035853;28;20029;-90
2022/01/13 06:43:05;;;;;;;0.10;0.10;;;;;;;7.19;71.16;104167.13;5036183;28;20041;-87
2022/01/13 06:45:32;;;;;;;1.95;1.85;;;;;;;7.14;71.91;104172.22;5018193;28;20073;-89
2022/01/13 06:47:59;;;;;;;0.10;0.10;;;;;;;7.19;71.18;104181.25;5036018;28;20065;-91
2022/01/13 06:50:25;;;;;;;2.40;0.65;;;;;;;7.24;70.98;104176.16;5035680;28;20021;-87
2022/01/13 06:52:51;;;;;;;0.47;0.47;;;;;;;7.19;71.26;104181.25;5024364;28;20120;-91
2022/01/13 06:55:17;;;;;;;17.10;1.17;;;;;;;7.22;71.52;104175.22;5016673;28;20033;-79
2022/01/13 06:57:45;;;;;;;2.97;0.68;;;;;;;7.22;71.50;104177.84;5032201;28;20391;-84
2022/01/13 07:00:13;;;;;;;0.10;0.10;;;;;;;7.24;71.12;104173.53;5011523;28;20039;-84
2022/01/13 07:02:42;;;;;;;2.05;1.55;;;;;;;7.28;71.41;104172.88;5046472;28;20072;-87
2022/01/13 07:05:09;;;;;;;0.40;0.40;;;;;;;7.28;71.57;104173.75;5025085;28;20111;-91
2022/01/13 07:07:45;;;;;;;0.20;0.20;;;;;;;7.32;71.46;104177.44;5036256;28;20032;-91
2022/01/13 07:10:12;;;;;;;0.00;0.00;;;;;;;7.25;71.34;104178.91;4998461;28;20034;-81
2022/01/13 07:12:42;;;;;;;1.60;1.50;;;;;;;7.28;71.48;104186.06;5033165;28;20065;-89
2022/01/13 07:15:10;;;;;;;0.13;0.13;;;;;;;7.28;70.97;104178.13;5018371;28;20104;-86
2022/01/13 07:17:37;;;;;;;0.20;0.20;;;;;;;7.24;71.55;104176.16;5035066;28;20040;-88
2022/01/13 07:20:05;;;;;;;0.15;0.15;;;;;;;7.23;71.36;104179.66;5019539;28;20172;-88
2022/01/13 07:22:32;;;;;;;1.02;1.02;;;;;;;7.21;71.74;104174.28;5035390;28;21994;-91
2022/01/13 07:24:59;;;;;;;1.13;1.13;;;;;;;7.24;71.68;104182.34;5018562;28;20030;-91
2022/01/13 07:27:25;;;;;;;0.25;0.25;;;;;;;7.26;71.69;104177.16;5033899;28;20044;-91
2022/01/13 07:29:51;;;;;;;0.57;0.57;;;;;;;7.19;71.69;104185.59;5026623;28;20124;-89
2022/01/13 07:32:42;;;;;;;1.27;1.23;;;;;;;7.23;71.81;104180.53;5027389;28;20472;-89
2022/01/13 07:35:09;;;;;;;0.45;0.45;;;;;;;7.23;71.80;104184.94;5005988;28;20045;-88
2022/01/13 07:37:35;;;;;;;0.20;0.20;;;;;;;7.30;71.71;104187.00;5035233;28;20030;-89
2022/01/13 07:40:03;;;;;;;0.10;0.10;;;;;;;7.28;71.74;104188.69;5008941;28;20045;-90
2022/01/13 07:42:30;;;;;;;8.88;1.23;;;;;;;7.35;71.19;104185.50;5016975;28;20041;-90
2022/01/13 07:44:56;;;;;;;0.30;0.30;;;;;;;7.34;71.20;104188.97;5018517;28;20038;-89
2022/01/13 07:47:22;;;;;;;0.20;0.20;;;;;;;7.38;71.50;104190.91;5034022;28;20105;-89
2022/01/13 07:49:48;;;;;;;1.08;1.08;;;;;;;7.39;71.34;104192.75;5029786;22;20049;-85
2022/01/13 07:52:14;;;;;;;0.30;0.30;;;;;;;7.39;71.58;104192.75;4988833;28;20031;-85
2022/01/13 07:54:40;;;;;;;0.10;0.10;;;;;;;7.41;71.45;104191.09;5004175;28;20026;-85
2022/01/13 07:57:07;;;;;;;1.67;0.63;;;;;;;7.42;71.57;104198.13;5005738;28;20065;-85
2022/01/13 07:59:33;;;;;;;0.15;0.15;;;;;;;7.41;71.55;104201.63;5009800;28;20104;-85
2022/01/13 08:02:00;;;;;;;0.10;0.10;;;;;;;7.41;71.63;104200.72;4985236;28;20038;-85
2022/01/13 08:04:27;;;;;;;1.50;1.48;;;;;;;7.38;71.35;104203.22;4983574;28;20034;-84
2022/01/13 08:06:53;;;;;;;0.85;0.85;;;;;;;7.38;71.38;104190.03;4986748;28;20030;-85
2022/01/13 08:09:22;;;;;;;0.85;0.85;;;;;;;7.44;71.39;104199.13;4983386;28;20039;-85
2022/01/13 08:11:57;;;;;;;0.10;0.10;;;;;;;7.47;71.43;104205.38;4986277;28;20034;-84
2022/01/13 08:14:24;;;;;;;0.20;0.20;;;;;;;7.44;71.75;104201.75;4984086;28;20367;-84
2022/01/13 08:16:55;;;;;;;0.10;0.10;;;;;;;7.46;71.60;104196.56;4986998;28;20473;-84
2022/01/13 08:19:53;;;;;;;0.20;0.20;;;;;;;7.54;71.23;104199.53;4983760;28;20397;-85
2022/01/13 08:22:08;;;;;;;0.50;0.50;;;;;;;7.56;70.95;104201.44;4987848;28;20289;-84
2022/01/13 08:24:34;;;;;;;0.20;0.20;;;;;;;7.48;71.02;104205.47;4992132;28;20507;-84
2022/01/13 08:27:00;;;;;;;0.10;0.10;;;;;;;7.54;71.14;104196.91;4992287;28;20485;-84
2022/01/13 08:29:26;;;;;;;0.25;0.25;;;;;;;7.55;71.00;104198.72;4992624;28;20026;-85
2022/01/13 08:31:52;;;;;;;0.30;0.30;;;;;;;7.59;71.34;104200.69;4993495;28;20077;-85
2022/01/13 08:34:19;;;;;;;0.45;0.45;;;;;;;7.58;71.24;104201.50;4993143;28;20034;-86
2022/01/13 08:36:45;;;;;;;0.63;0.63;;;;;;;7.59;71.48;104205.97;4993140;28;20027;-85
2022/01/13 08:39:12;;;;;;;1.98;1.40;;;;;;;7.68;71.04;104211.66;4992560;28;20153;-85
2022/01/13 08:41:42;;;;;;;0.10;0.10;;;;;;;7.72;71.58;104210.06;4992892;28;20030;-85
2022/01/13 08:44:09;;;;;;;0.20;0.20;;;;;;;7.73;70.86;104215.41;4992283;28;20034;-85
2022/01/13 08:46:38;;;;;;;0.32;0.32;;;;;;;7.80;70.93;104219.25;4990672;28;20038;-85
2022/01/13 08:49:05;;;;;;;1.23;1.23;;;;;;;7.78;71.08;104223.56;4982144;28;20030;-85
2022/01/13 08:51:31;;;;;;;3.78;1.38;;;;;;;7.85;70.97;104230.94;4992205;28;20031;-85
2022/01/13 08:53:58;;;;;;;0.20;0.20;;;;;;;7.82;71.13;104229.88;4991935;28;20042;-85
2022/01/13 08:56:24;;;;;;;0.10;0.10;;;;;;;7.89;71.03;104227.59;4993283;28;20041;-84
2022/01/13 08:58:50;;;;;;;0.38;0.38;;;;;;;7.90;70.99;104217.91;4992996;28;20022;-84
2022/01/13 09:01:16;;;;;;;0.10;0.10;;;;;;;7.94;71.09;104214.59;4992922;28;20454;-85
2022/01/13 09:03:42;;;;;;;0.28;0.28;;;;;;;7.96;71.46;104214.66;4992857;28;20569;-86
2022/01/13 09:06:08;;;;;;;1.02;1.00;;;;;;;7.97;71.21;104220.00;4986949;28;20035;-85
2022/01/13 09:08:35;;;;;;;1.58;1.55;;;;;;;8.04;71.10;104216.81;4985625;28;20065;-86
2022/01/13 09:11:01;;;;;;;0.35;0.35;;;;;;;8.07;71.41;104222.25;4992006;28;20041;-85
2022/01/13 09:13:27;;;;;;;1.40;1.27;;;;;;;8.03;71.70;104217.63;4992430;28;20026;-87
2022/01/13 09:15:59;;;;;;;0.10;0.10;;;;;;;8.11;71.58;104220.63;4992377;28;20512;-86
2022/01/13 09:18:48;;;;;;;0.10;0.10;;;;;;;8.04;71.50;104214.16;4993014;28;20037;-86
2022/01/13 09:21:17;;;;;;;1.65;1.20;;;;;;;8.03;71.76;104215.00;4992247;28;20077;-86
2022/01/13 09:23:43;;;;;;;0.32;0.28;;;;;;;8.09;70.82;104220.56;4992307;28;20066;-85
2022/01/13 09:26:09;;;;;;;0.50;0.50;;;;;;;8.07;71.32;104222.25;4992151;28;20042;-85
2022/01/13 09:28:36;;;;;;;7.63;2.58;;;;;;;8.08;71.02;104218.75;4992411;28;20022;-84
2022/01/13 09:31:03;;;;;;;0.10;0.10;;;;;;;8.01;71.32;104215.75;4992442;28;20076;-85
2022/01/13 09:33:30;;;;;;;0.13;0.13;;;;;;;8.05;71.26;104223.91;4992554;28;20049;-85
2022/01/13 09:35:57;;;;;;;0.10;0.10;;;;;;;8.06;71.59;104216.88;4992521;28;20022;-85
2022/01/13 09:38:23;;;;;;;2.42;1.80;;;;;;;7.94;71.82;104211.97;4992215;28;20027;-86
2022/01/13 09:40:52;;;;;;;0.10;0.10;;;;;;;8.02;71.60;104213.19;4991697;28;20049;-84
2022/01/13 09:43:22;;;;;;;0.10;0.10;;;;;;;8.14;71.14;104214.56;4992190;28;20442;-85
2022/01/13 09:45:49;;;;;;;0.20;0.20;;;;;;;8.07;71.15;104213.41;4992556;28;20392;-86
2022/01/13 09:48:16;;;;;;;0.10;0.10;;;;;;;8.06;70.89;104219.50;4992103;28;20100;-85
2022/01/13 09:50:46;;;;;;;0.28;0.28;;;;;;;8.06;71.59;104222.16;4991181;28;20133;-86
2022/01/13 09:53:13;;;;;;;0.10;0.10;;;;;;;8.08;71.37;104220.50;4991851;28;20122;-86
2022/01/13 09:55:40;;;;;;;0.20;0.20;;;;;;;8.16;70.99;104221.75;4986501;28;20039;-85
2022/01/13 09:58:10;;;;;;;0.40;0.40;;;;;;;8.20;71.63;104220.13;4976673;28;20027;-86
2022/01/13 10:00:39;;;;;;;0.20;0.20;;;;;;;8.20;71.43;104215.75;4972843;28;20036;-85
2022/01/13 10:03:26;;;;;;;0.10;0.10;;;;;;;8.31;71.18;104229.44;4972957;28;20066;-86
2022/01/13 10:06:15;;;;;;;1.10;1.10;;;;;;;8.40;71.52;104221.91;4973198;28;20118;-86
2022/01/13 10:08:58;;;;;;;1.98;0.30;;;;;;;8.51;71.32;104217.13;4974962;28;20093;-85
2022/01/13 10:11:26;;;;;;;;;;;;;;;8.69;70.52;104214.34;4976905;28;20034;-87
2022/01/13 10:17:16;;;;;;;0.10;0.10;;;;;;;8.50;71.06;104215.31;5063103;28;20455;-85
2022/01/13 10:19:44;;;;;;;1.95;1.85;;;;;;;8.50;71.07;104211.75;5049407;28;20033;-85
2022/01/13 10:22:15;;;;;;;0.20;0.20;;;;;;;8.54;70.90;104213.72;5049494;28;20033;-85
2022/01/13 10:24:45;;;;;;;0.10;0.10;;;;;;;8.59;71.40;104201.59;5049347;28;20032;-85
2022/01/13 10:27:16;;;;;;;0.10;0.10;;;;;;;8.58;70.86;104205.06;5049256;28;20029;-85
2022/01/13 10:29:52;;;;;;;0.10;0.10;;;;;;;8.63;70.68;104205.28;5049015;28;20025;-85
2022/01/13 10:32:24;;;;;;;0.10;0.10;;;;;;;8.68;71.04;104204.59;5049062;28;20034;-85
2022/01/13 10:35:00;;;;;;;1.35;0.35;;;;;;;8.72;71.57;104209.22;5048521;28;20029;-84
2022/01/13 10:37:36;;;;;;;0.85;0.85;;;;;;;8.84;70.66;104207.91;5049115;28;20029;-85
2022/01/13 10:40:09;;;;;;;0.80;0.80;;;;;;;8.83;71.35;104214.03;5041956;28;20468;-87
2022/01/13 10:45:22;;;;;;;0.10;0.10;;;;;;;8.77;70.95;104211.13;5089351;27;20797;-85
2022/01/13 10:50:51;;;;;;;1.95;1.73;;;;;;;8.86;70.91;104207.13;5112002;22;20441;-88
2022/01/13 10:56:19;;;;;;;5.28;2.47;;;;;;;8.88;70.96;104199.25;5069920;28;20498;-88
2022/01/13 10:58:52;;;;;;;0.10;0.10;;;;;;;9.00;70.93;104199.75;5035711;28;20137;-91
2022/01/13 11:01:18;;;;;;;3.30;1.73;;;;;;;8.93;70.76;104200.34;5017894;28;20033;-84
2022/01/13 11:03:46;;;;;;;0.13;0.13;;;;;;;8.89;70.41;104204.59;5014629;28;20038;-85
2022/01/13 11:06:13;;;;;;;3.40;3.20;;;;;;;8.93;70.58;104203.00;5029030;28;20436;-84
2022/01/13 11:11:26;;;;;;;0.28;0.28;;;;;;;8.88;70.54;104200.19;5070256;28;21112;-90
2022/01/13 11:13:57;;;;;;;0.65;0.65;;;;;;;8.96;70.41;104200.47;5066160;28;20095;-89
2022/01/13 11:16:24;;;;;;;0.20;0.20;;;;;;;8.95;70.90;104195.09;5068658;28;20021;-85
2022/01/13 11:18:52;;;;;;;0.20;0.20;;;;;;;8.96;70.40;104199.56;5062551;28;20025;-88
2022/01/13 11:21:19;;;;;;;2.25;2.15;;;;;;;8.94;70.98;104193.34;5068710;28;20381;-89
2022/01/13 11:23:49;;;;;;;0.20;0.20;;;;;;;9.06;70.38;104192.06;5066557;28;20112;-88
2022/01/13 11:26:17;;;;;;;1.05;1.05;;;;;;;9.09;70.57;104186.00;5059457;28;20460;-89
2022/01/13 11:28:43;;;;;;;5.28;1.92;;;;;;;9.17;70.11;104192.50;5053331;28;20032;-77
2022/01/13 11:31:10;;;;;;;0.40;0.40;;;;;;;9.21;70.79;104193.53;5058553;28;20045;-91
2022/01/13 11:33:38;;;;;;;0.20;0.20;;;;;;;9.18;70.79;104189.03;5057007;28;20075;-91
2022/01/13 11:36:08;;;;;;;0.40;0.40;;;;;;;9.12;70.16;104182.56;5058615;28;20107;-89
2022/01/13 11:38:34;;;;;;;1.08;1.08;;;;;;;8.99;70.54;104187.38;5057287;28;20029;-88
2022/01/13 11:41:04;;;;;;;0.10;0.10;;;;;;;9.13;70.19;104192.31;5060519;28;20539;-92
2022/01/13 11:46:29;;;;;;;0.40;0.40;;;;;;;9.12;70.50;104178.19;5052413;28;20505;-88
2022/01/13 12:02:44;;;;;;;0.30;0.30;;;;;;;9.04;70.36;104156.72;4739046;27;11500465;-91
2022/01/13 12:05:16;;;;;;;0.55;0.55;;;;;;;9.12;70.61;104161.41;5130004;28;20076;-94
2022/01/13 12:07:47;;;;;;;1.25;1.23;;;;;;;9.15;70.74;104151.84;5110027;28;20065;-92
2022/01/13 12:13:20;;;;;;;9.13;1.75;;;;;;;9.07;70.36;104143.63;5109929;27;20751;-86
2022/01/13 12:15:46;;;;;;;2.28;1.38;;;;;;;9.09;69.92;104148.97;5108547;28;20036;-84
2022/01/13 12:18:12;;;;;;;0.10;0.10;;;;;;;9.02;70.08;104134.63;5109941;28;20039;-86
2022/01/13 12:23:42;;;;;;;0.05;0.05;;;;;;;9.12;69.66;104137.59;5089569;28;20440;-86
2022/01/13 12:26:46;;;;;;;0.30;0.30;;;;;;;9.09;70.08;104134.84;5069112;28;20033;-86
2022/01/13 12:29:29;;;;;;;0.40;0.40;;;;;;;9.10;70.22;104128.69;5061687;28;20033;-84
2022/01/13 12:37:25;;;;;;;0.63;0.63;;;;;;;9.11;70.10;104114.63;5089298;27;20402;-84
2022/01/13 12:39:58;;;;;;;1.00;0.77;;;;;;;9.19;69.83;104115.84;5056458;28;20037;-84
2022/01/13 12:42:29;;;;;;;2.17;1.33;;;;;;;9.16;69.94;104121.00;5049344;28;20044;-84
2022/01/13 12:47:43;;;;;;;3.40;2.58;;;;;;;9.08;69.64;104112.78;5049058;28;20038;-83
2022/01/13 12:50:33;;;;;;;1.00;1.00;;;;;;;9.10;69.85;104110.16;5049079;28;20025;-84
2022/01/13 12:53:10;;;;;;;2.50;1.67;;;;;;;9.15;69.43;104111.28;5048803;28;20033;-84
2022/01/13 12:55:38;;;;;;;6.72;3.38;;;;;;;9.19;69.66;104115.84;5049073;28;20064;-84
2022/01/13 12:58:05;;;;;;;0.28;0.28;;;;;;;9.12;69.88;104120.00;5048765;28;20025;-83
2022/01/13 13:00:33;;;;;;;0.20;0.20;;;;;;;9.17;69.94;104117.50;5048837;28;20033;-84